Grobbendonk, Belgium
Current Conditions -  °F | °C
As of 5:20 PM on Tuesday 21 Oct 2014 (Local Time) from EBAW Reporting Station
Rain Showers Rain Showers  
Wind Chill:   Ceiling: 4000
Heat Index:   Visibility: 2.3mi
Dew Point:   Wind: 24mph
Humidity: 76%   Direction: 290°WNW
Pressure: 29.65"   Gusts: 43mph
Location:  51.19°N, 4.74°E
Report Text: EBAW 211520Z 29021G37KT 3800 SHRA BR SCT028CB BKN040 09/05 Q1004 TEMPO 8000 NSW
Loading
Personal Weather Stations






























Interactive Weather Map
Tropical Storm Tracking
New forecast layout! Learn more

10-Day Weather Forecast

Advertisements
Track Severe Weather on mobile